sensor_id;sensor_type;location;lat;lon;timestamp;temperature;humidity
50947;DHT22;36955;47.416;7.716;2022-07-18T00:00:54;19.00;96.70
50947;DHT22;36955;47.416;7.716;2022-07-18T00:03:20;19.00;97.10
50947;DHT22;36955;47.416;7.716;2022-07-18T00:05:46;18.90;96.30
50947;DHT22;36955;47.416;7.716;2022-07-18T00:08:12;19.00;96.10
50947;DHT22;36955;47.416;7.716;2022-07-18T00:10:38;19.00;96.20
50947;DHT22;36955;47.416;7.716;2022-07-18T00:13:04;19.10;96.50
50947;DHT22;36955;47.416;7.716;2022-07-18T00:15:30;19.10;96.80
50947;DHT22;36955;47.416;7.716;2022-07-18T00:17:56;19.10;96.50
50947;DHT22;36955;47.416;7.716;2022-07-18T00:20:23;19.10;97.10
50947;DHT22;36955;47.416;7.716;2022-07-18T00:22:49;19.00;96.90
50947;DHT22;36955;47.416;7.716;2022-07-18T00:25:15;19.00;97.10
50947;DHT22;36955;47.416;7.716;2022-07-18T00:27:41;19.00;97.10
50947;DHT22;36955;47.416;7.716;2022-07-18T00:30:07;18.90;97.20
50947;DHT22;36955;47.416;7.716;2022-07-18T00:32:33;18.90;97.30
50947;DHT22;36955;47.416;7.716;2022-07-18T00:34:59;18.80;97.80
50947;DHT22;36955;47.416;7.716;2022-07-18T00:37:26;18.70;97.80
50947;DHT22;36955;47.416;7.716;2022-07-18T00:39:52;18.60;98.00
50947;DHT22;36955;47.416;7.716;2022-07-18T00:42:18;18.60;97.90
50947;DHT22;36955;47.416;7.716;2022-07-18T00:44:45;18.50;97.60
50947;DHT22;36955;47.416;7.716;2022-07-18T00:47:11;18.40;98.00
50947;DHT22;36955;47.416;7.716;2022-07-18T00:49:37;18.30;97.50
50947;DHT22;36955;47.416;7.716;2022-07-18T00:52:04;18.30;98.10
50947;DHT22;36955;47.416;7.716;2022-07-18T00:54:30;18.30;97.90
50947;DHT22;36955;47.416;7.716;2022-07-18T00:56:56;18.30;97.90
50947;DHT22;36955;47.416;7.716;2022-07-18T00:59:22;18.30;97.70
50947;DHT22;36955;47.416;7.716;2022-07-18T01:01:48;18.30;97.70
50947;DHT22;36955;47.416;7.716;2022-07-18T01:04:19;18.30;98.20
50947;DHT22;36955;47.416;7.716;2022-07-18T01:06:47;18.20;98.30
50947;DHT22;36955;47.416;7.716;2022-07-18T01:09:14;18.30;98.20
50947;DHT22;36955;47.416;7.716;2022-07-18T01:11:40;18.30;98.50
50947;DHT22;36955;47.416;7.716;2022-07-18T01:14:07;18.30;98.10
50947;DHT22;36955;47.416;7.716;2022-07-18T01:16:33;18.20;98.00
50947;DHT22;36955;47.416;7.716;2022-07-18T01:19:00;18.20;98.30
50947;DHT22;36955;47.416;7.716;2022-07-18T01:21:26;18.20;98.10
50947;DHT22;36955;47.416;7.716;2022-07-18T01:23:52;18.10;98.10
50947;DHT22;36955;47.416;7.716;2022-07-18T01:26:18;18.10;98.00
50947;DHT22;36955;47.416;7.716;2022-07-18T01:28:45;18.10;98.70
50947;DHT22;36955;47.416;7.716;2022-07-18T01:31:11;18.00;98.50
50947;DHT22;36955;47.416;7.716;2022-07-18T01:33:38;18.00;98.40
50947;DHT22;36955;47.416;7.716;2022-07-18T01:36:05;18.00;98.40
50947;DHT22;36955;47.416;7.716;2022-07-18T01:38:32;18.00;98.30
50947;DHT22;36955;47.416;7.716;2022-07-18T01:40:59;17.90;98.50
50947;DHT22;36955;47.416;7.716;2022-07-18T01:43:25;17.90;98.50
50947;DHT22;36955;47.416;7.716;2022-07-18T01:45:53;17.90;98.80
50947;DHT22;36955;47.416;7.716;2022-07-18T01:48:20;17.90;99.40
50947;DHT22;36955;47.416;7.716;2022-07-18T01:50:46;17.80;98.80
50947;DHT22;36955;47.416;7.716;2022-07-18T01:53:12;17.80;98.90
50947;DHT22;36955;47.416;7.716;2022-07-18T01:55:38;17.80;98.90
50947;DHT22;36955;47.416;7.716;2022-07-18T01:58:05;17.80;99.10
50947;DHT22;36955;47.416;7.716;2022-07-18T02:00:31;17.80;99.40
50947;DHT22;36955;47.416;7.716;2022-07-18T02:02:57;17.70;99.30
50947;DHT22;36955;47.416;7.716;2022-07-18T02:05:24;17.70;99.40
50947;DHT22;36955;47.416;7.716;2022-07-18T02:07:50;17.70;99.60
50947;DHT22;36955;47.416;7.716;2022-07-18T02:10:19;17.60;99.40
50947;DHT22;36955;47.416;7.716;2022-07-18T02:12:46;17.70;99.40
50947;DHT22;36955;47.416;7.716;2022-07-18T02:15:14;17.60;99.70
50947;DHT22;36955;47.416;7.716;2022-07-18T02:17:41;17.60;99.50
50947;DHT22;36955;47.416;7.716;2022-07-18T02:20:09;17.60;99.60
50947;DHT22;36955;47.416;7.716;2022-07-18T02:22:38;17.60;99.90
50947;DHT22;36955;47.416;7.716;2022-07-18T02:25:05;17.60;99.90
50947;DHT22;36955;47.416;7.716;2022-07-18T02:27:32;17.70;99.90
50947;DHT22;36955;47.416;7.716;2022-07-18T02:29:58;17.70;99.90
50947;DHT22;36955;47.416;7.716;2022-07-18T02:32:24;17.70;99.70
50947;DHT22;36955;47.416;7.716;2022-07-18T02:34:50;17.70;99.60
50947;DHT22;36955;47.416;7.716;2022-07-18T02:37:17;17.60;99.90
50947;DHT22;36955;47.416;7.716;2022-07-18T02:39:43;17.60;99.70
50947;DHT22;36955;47.416;7.716;2022-07-18T02:42:10;17.50;99.60
50947;DHT22;36955;47.416;7.716;2022-07-18T02:44:36;17.60;99.90
50947;DHT22;36955;47.416;7.716;2022-07-18T02:47:03;17.60;99.40
50947;DHT22;36955;47.416;7.716;2022-07-18T02:49:29;17.60;99.10
50947;DHT22;36955;47.416;7.716;2022-07-18T02:51:57;17.70;99.00
50947;DHT22;36955;47.416;7.716;2022-07-18T02:54:23;17.70;98.90
50947;DHT22;36955;47.416;7.716;2022-07-18T02:56:50;17.70;98.20
50947;DHT22;36955;47.416;7.716;2022-07-18T02:59:16;17.70;99.00
50947;DHT22;36955;47.416;7.716;2022-07-18T03:01:43;17.70;99.30
50947;DHT22;36955;47.416;7.716;2022-07-18T03:04:09;17.80;98.80
50947;DHT22;36955;47.416;7.716;2022-07-18T03:06:35;17.70;98.60
50947;DHT22;36955;47.416;7.716;2022-07-18T03:09:01;17.70;96.90
50947;DHT22;36955;47.416;7.716;2022-07-18T03:11:27;17.70;97.50
50947;DHT22;36955;47.416;7.716;2022-07-18T03:13:53;17.70;98.30
50947;DHT22;36955;47.416;7.716;2022-07-18T03:16:19;17.70;97.10
50947;DHT22;36955;47.416;7.716;2022-07-18T03:18:45;17.70;98.40
50947;DHT22;36955;47.416;7.716;2022-07-18T03:21:11;17.60;98.00
50947;DHT22;36955;47.416;7.716;2022-07-18T03:23:37;17.50;97.80
50947;DHT22;36955;47.416;7.716;2022-07-18T03:26:03;17.50;98.30
50947;DHT22;36955;47.416;7.716;2022-07-18T03:28:29;17.50;98.40
50947;DHT22;36955;47.416;7.716;2022-07-18T03:30:55;17.50;98.10
50947;DHT22;36955;47.416;7.716;2022-07-18T03:33:21;17.50;97.60
50947;DHT22;36955;47.416;7.716;2022-07-18T03:35:47;17.40;97.30
50947;DHT22;36955;47.416;7.716;2022-07-18T03:38:13;17.40;97.40
50947;DHT22;36955;47.416;7.716;2022-07-18T03:40:39;17.30;97.90
50947;DHT22;36955;47.416;7.716;2022-07-18T03:43:05;17.30;98.40
50947;DHT22;36955;47.416;7.716;2022-07-18T03:45:31;17.30;97.60
50947;DHT22;36955;47.416;7.716;2022-07-18T03:47:57;17.20;96.90
50947;DHT22;36955;47.416;7.716;2022-07-18T03:50:23;17.20;97.70
50947;DHT22;36955;47.416;7.716;2022-07-18T03:52:49;17.20;97.30
50947;DHT22;36955;47.416;7.716;2022-07-18T03:55:15;17.20;97.10
50947;DHT22;36955;47.416;7.716;2022-07-18T03:57:42;17.20;96.20
50947;DHT22;36955;47.416;7.716;2022-07-18T04:00:08;17.10;96.70
50947;DHT22;36955;47.416;7.716;2022-07-18T04:02:41;17.10;96.50
50947;DHT22;36955;47.416;7.716;2022-07-18T04:05:08;17.10;97.10
50947;DHT22;36955;47.416;7.716;2022-07-18T04:07:34;17.10;96.10
50947;DHT22;36955;47.416;7.716;2022-07-18T04:10:01;17.20;96.50
50947;DHT22;36955;47.416;7.716;2022-07-18T04:12:27;17.20;95.80
50947;DHT22;36955;47.416;7.716;2022-07-18T04:14:53;17.20;96.60
50947;DHT22;36955;47.416;7.716;2022-07-18T04:17:19;17.20;96.30
50947;DHT22;36955;47.416;7.716;2022-07-18T04:19:45;17.20;96.60
50947;DHT22;36955;47.416;7.716;2022-07-18T04:22:11;17.30;95.60
50947;DHT22;36955;47.416;7.716;2022-07-18T04:24:37;17.40;96.50
50947;DHT22;36955;47.416;7.716;2022-07-18T04:27:03;17.40;96.20
50947;DHT22;36955;47.416;7.716;2022-07-18T04:29:29;17.40;97.10
50947;DHT22;36955;47.416;7.716;2022-07-18T04:31:55;17.50;97.30
50947;DHT22;36955;47.416;7.716;2022-07-18T04:34:21;17.50;95.80
50947;DHT22;36955;47.416;7.716;2022-07-18T04:36:47;17.60;96.00
50947;DHT22;36955;47.416;7.716;2022-07-18T04:39:13;17.60;96.10
50947;DHT22;36955;47.416;7.716;2022-07-18T04:41:39;17.70;96.00
50947;DHT22;36955;47.416;7.716;2022-07-18T04:44:05;17.70;95.60
50947;DHT22;36955;47.416;7.716;2022-07-18T04:46:31;17.80;95.40
50947;DHT22;36955;47.416;7.716;2022-07-18T04:48:57;17.80;96.90
50947;DHT22;36955;47.416;7.716;2022-07-18T04:51:23;17.90;95.90
50947;DHT22;36955;47.416;7.716;2022-07-18T04:53:49;17.90;97.30
50947;DHT22;36955;47.416;7.716;2022-07-18T04:56:15;17.90;96.40
50947;DHT22;36955;47.416;7.716;2022-07-18T04:58:41;18.00;97.70
50947;DHT22;36955;47.416;7.716;2022-07-18T05:01:07;18.00;96.00
50947;DHT22;36955;47.416;7.716;2022-07-18T05:03:33;18.00;95.20
50947;DHT22;36955;47.416;7.716;2022-07-18T05:05:59;18.20;95.10
50947;DHT22;36955;47.416;7.716;2022-07-18T05:08:25;18.30;94.40
50947;DHT22;36955;47.416;7.716;2022-07-18T05:10:51;18.40;94.70
50947;DHT22;36955;47.416;7.716;2022-07-18T05:13:17;18.50;94.50
50947;DHT22;36955;47.416;7.716;2022-07-18T05:15:44;18.70;94.40
50947;DHT22;36955;47.416;7.716;2022-07-18T05:18:10;18.70;94.70
50947;DHT22;36955;47.416;7.716;2022-07-18T05:20:36;18.80;94.40
50947;DHT22;36955;47.416;7.716;2022-07-18T05:23:02;18.90;95.20
50947;DHT22;36955;47.416;7.716;2022-07-18T05:25:28;19.00;94.80
50947;DHT22;36955;47.416;7.716;2022-07-18T05:27:54;19.00;95.10
50947;DHT22;36955;47.416;7.716;2022-07-18T05:30:20;19.10;94.90
50947;DHT22;36955;47.416;7.716;2022-07-18T05:32:47;19.20;94.40
50947;DHT22;36955;47.416;7.716;2022-07-18T05:35:13;19.40;94.60
50947;DHT22;36955;47.416;7.716;2022-07-18T05:37:40;19.50;94.00
50947;DHT22;36955;47.416;7.716;2022-07-18T05:40:08;19.60;94.50
50947;DHT22;36955;47.416;7.716;2022-07-18T05:42:34;19.80;94.20
50947;DHT22;36955;47.416;7.716;2022-07-18T05:45:00;19.90;93.40
50947;DHT22;36955;47.416;7.716;2022-07-18T05:47:26;20.00;93.20
50947;DHT22;36955;47.416;7.716;2022-07-18T05:49:52;20.20;93.50
50947;DHT22;36955;47.416;7.716;2022-07-18T05:52:18;20.30;92.40
50947;DHT22;36955;47.416;7.716;2022-07-18T05:54:45;20.50;93.10
50947;DHT22;36955;47.416;7.716;2022-07-18T05:57:11;20.60;93.20
50947;DHT22;36955;47.416;7.716;2022-07-18T05:59:37;20.70;92.60
50947;DHT22;36955;47.416;7.716;2022-07-18T06:02:03;20.70;92.20
50947;DHT22;36955;47.416;7.716;2022-07-18T06:04:29;20.70;92.40
50947;DHT22;36955;47.416;7.716;2022-07-18T06:06:55;20.70;92.10
50947;DHT22;36955;47.416;7.716;2022-07-18T06:09:21;20.80;91.50
50947;DHT22;36955;47.416;7.716;2022-07-18T06:11:47;20.80;92.30
50947;DHT22;36955;47.416;7.716;2022-07-18T06:14:13;20.90;92.50
50947;DHT22;36955;47.416;7.716;2022-07-18T06:16:39;21.00;92.70
50947;DHT22;36955;47.416;7.716;2022-07-18T06:19:05;21.10;92.00
50947;DHT22;36955;47.416;7.716;2022-07-18T06:21:31;21.10;93.00
50947;DHT22;36955;47.416;7.716;2022-07-18T06:23:57;21.10;91.60
50947;DHT22;36955;47.416;7.716;2022-07-18T06:26:23;21.20;92.50
50947;DHT22;36955;47.416;7.716;2022-07-18T06:28:49;21.30;92.40
50947;DHT22;36955;47.416;7.716;2022-07-18T06:31:16;21.30;92.70
50947;DHT22;36955;47.416;7.716;2022-07-18T06:33:42;21.30;93.00
50947;DHT22;36955;47.416;7.716;2022-07-18T06:36:09;21.40;92.40
50947;DHT22;36955;47.416;7.716;2022-07-18T06:38:35;21.40;92.80
50947;DHT22;36955;47.416;7.716;2022-07-18T06:41:01;21.50;93.10
50947;DHT22;36955;47.416;7.716;2022-07-18T06:43:27;21.50;93.10
50947;DHT22;36955;47.416;7.716;2022-07-18T06:45:53;21.60;93.80
50947;DHT22;36955;47.416;7.716;2022-07-18T06:48:19;21.70;94.10
50947;DHT22;36955;47.416;7.716;2022-07-18T06:50:45;21.80;92.70
50947;DHT22;36955;47.416;7.716;2022-07-18T06:53:11;21.80;93.20
50947;DHT22;36955;47.416;7.716;2022-07-18T06:55:37;21.80;93.30
50947;DHT22;36955;47.416;7.716;2022-07-18T06:58:03;21.90;93.40
50947;DHT22;36955;47.416;7.716;2022-07-18T07:00:29;21.90;93.80
50947;DHT22;36955;47.416;7.716;2022-07-18T07:02:55;22.00;93.70
50947;DHT22;36955;47.416;7.716;2022-07-18T07:05:21;22.10;94.40
50947;DHT22;36955;47.416;7.716;2022-07-18T07:07:48;22.20;93.80
50947;DHT22;36955;47.416;7.716;2022-07-18T07:10:15;22.30;93.80
50947;DHT22;36955;47.416;7.716;2022-07-18T07:12:45;22.40;94.00
50947;DHT22;36955;47.416;7.716;2022-07-18T07:15:11;22.50;93.40
50947;DHT22;36955;47.416;7.716;2022-07-18T07:17:37;22.60;93.60
50947;DHT22;36955;47.416;7.716;2022-07-18T07:20:05;22.70;94.30
50947;DHT22;36955;47.416;7.716;2022-07-18T07:22:40;22.70;93.80
50947;DHT22;36955;47.416;7.716;2022-07-18T07:25:06;22.80;93.40
50947;DHT22;36955;47.416;7.716;2022-07-18T07:27:32;22.80;94.30
50947;DHT22;36955;47.416;7.716;2022-07-18T07:29:58;23.00;93.60
50947;DHT22;36955;47.416;7.716;2022-07-18T07:32:24;23.10;93.50
50947;DHT22;36955;47.416;7.716;2022-07-18T07:34:50;23.20;94.40
50947;DHT22;36955;47.416;7.716;2022-07-18T07:37:17;23.40;93.60
50947;DHT22;36955;47.416;7.716;2022-07-18T07:39:43;23.50;94.30
50947;DHT22;36955;47.416;7.716;2022-07-18T07:42:09;23.60;93.60
50947;DHT22;36955;47.416;7.716;2022-07-18T07:44:35;23.80;94.40
50947;DHT22;36955;47.416;7.716;2022-07-18T07:47:01;23.90;93.80
50947;DHT22;36955;47.416;7.716;2022-07-18T07:49:27;24.10;92.50
50947;DHT22;36955;47.416;7.716;2022-07-18T07:51:53;24.20;92.70
50947;DHT22;36955;47.416;7.716;2022-07-18T07:54:19;24.20;93.40
50947;DHT22;36955;47.416;7.716;2022-07-18T07:56:45;24.30;92.80
50947;DHT22;36955;47.416;7.716;2022-07-18T07:59:11;24.30;92.80
50947;DHT22;36955;47.416;7.716;2022-07-18T08:01:37;24.30;92.50
50947;DHT22;36955;47.416;7.716;2022-07-18T08:04:03;24.30;92.20
50947;DHT22;36955;47.416;7.716;2022-07-18T08:06:29;24.30;93.00
50947;DHT22;36955;47.416;7.716;2022-07-18T08:08:55;24.40;92.30
50947;DHT22;36955;47.416;7.716;2022-07-18T08:11:21;24.40;92.90
50947;DHT22;36955;47.416;7.716;2022-07-18T08:13:47;24.50;92.70
50947;DHT22;36955;47.416;7.716;2022-07-18T08:16:13;24.60;92.60
50947;DHT22;36955;47.416;7.716;2022-07-18T08:18:39;24.60;93.70
50947;DHT22;36955;47.416;7.716;2022-07-18T08:21:05;24.80;92.60
50947;DHT22;36955;47.416;7.716;2022-07-18T08:23:31;24.80;92.70
50947;DHT22;36955;47.416;7.716;2022-07-18T08:25:57;25.00;92.80
50947;DHT22;36955;47.416;7.716;2022-07-18T08:28:23;25.00;92.90
50947;DHT22;36955;47.416;7.716;2022-07-18T08:30:49;25.20;92.50
50947;DHT22;36955;47.416;7.716;2022-07-18T08:33:15;25.20;92.70
50947;DHT22;36955;47.416;7.716;2022-07-18T08:35:42;25.30;92.20
50947;DHT22;36955;47.416;7.716;2022-07-18T08:38:08;25.30;91.60
50947;DHT22;36955;47.416;7.716;2022-07-18T08:40:34;25.30;92.40
50947;DHT22;36955;47.416;7.716;2022-07-18T08:43:00;25.30;91.90
50947;DHT22;36955;47.416;7.716;2022-07-18T08:45:26;25.30;92.40
50947;DHT22;36955;47.416;7.716;2022-07-18T08:47:52;25.40;91.60
50947;DHT22;36955;47.416;7.716;2022-07-18T08:50:19;25.40;91.60
50947;DHT22;36955;47.416;7.716;2022-07-18T08:52:45;25.50;91.30
50947;DHT22;36955;47.416;7.716;2022-07-18T08:55:11;25.50;91.70
50947;DHT22;36955;47.416;7.716;2022-07-18T08:57:37;25.40;91.50
50947;DHT22;36955;47.416;7.716;2022-07-18T09:00:06;25.50;91.50
50947;DHT22;36955;47.416;7.716;2022-07-18T09:02:32;25.70;91.20
50947;DHT22;36955;47.416;7.716;2022-07-18T09:05:00;25.80;92.60
50947;DHT22;36955;47.416;7.716;2022-07-18T09:07:32;25.90;92.40
50947;DHT22;36955;47.416;7.716;2022-07-18T09:10:01;26.00;91.70
50947;DHT22;36955;47.416;7.716;2022-07-18T09:12:29;26.20;90.90
50947;DHT22;36955;47.416;7.716;2022-07-18T09:14:55;26.40;91.90
50947;DHT22;36955;47.416;7.716;2022-07-18T09:17:26;26.50;91.00
50947;DHT22;36955;47.416;7.716;2022-07-18T09:22:33;26.60;90.70
50947;DHT22;36955;47.416;7.716;2022-07-18T09:27:34;26.80;92.40
50947;DHT22;36955;47.416;7.716;2022-07-18T09:30:07;26.90;90.90
50947;DHT22;36955;47.416;7.716;2022-07-18T09:32:34;26.90;90.10
50947;DHT22;36955;47.416;7.716;2022-07-18T09:35:12;26.90;90.90
50947;DHT22;36955;47.416;7.716;2022-07-18T09:37:38;27.00;90.30
50947;DHT22;36955;47.416;7.716;2022-07-18T09:42:41;27.00;91.00
50947;DHT22;36955;47.416;7.716;2022-07-18T09:45:08;27.10;90.30
50947;DHT22;36955;47.416;7.716;2022-07-18T09:48:01;27.20;88.40
50947;DHT22;36955;47.416;7.716;2022-07-18T09:50:33;27.20;90.20
50947;DHT22;36955;47.416;7.716;2022-07-18T09:53:07;27.30;88.10
50947;DHT22;36955;47.416;7.716;2022-07-18T09:55:33;27.30;88.70
50947;DHT22;36955;47.416;7.716;2022-07-18T09:58:06;27.30;86.90
50947;DHT22;36955;47.416;7.716;2022-07-18T10:00:34;27.30;86.20
50947;DHT22;36955;47.416;7.716;2022-07-18T10:03:01;27.30;85.30
50947;DHT22;36955;47.416;7.716;2022-07-18T10:05:39;27.30;85.10
50947;DHT22;36955;47.416;7.716;2022-07-18T10:08:08;27.40;85.40
50947;DHT22;36955;47.416;7.716;2022-07-18T10:10:35;27.50;85.30
50947;DHT22;36955;47.416;7.716;2022-07-18T10:13:03;27.50;84.90
50947;DHT22;36955;47.416;7.716;2022-07-18T10:15:31;27.50;85.30
50947;DHT22;36955;47.416;7.716;2022-07-18T10:17:59;27.50;86.60
50947;DHT22;36955;47.416;7.716;2022-07-18T10:20:47;27.60;86.90
50947;DHT22;36955;47.416;7.716;2022-07-18T10:23:17;27.60;88.40
50947;DHT22;36955;47.416;7.716;2022-07-18T10:25:44;27.50;85.40
50947;DHT22;36955;47.416;7.716;2022-07-18T10:28:13;27.50;85.10
50947;DHT22;36955;47.416;7.716;2022-07-18T10:30:43;27.50;85.10
50947;DHT22;36955;47.416;7.716;2022-07-18T10:33:44;27.60;87.20
50947;DHT22;36955;47.416;7.716;2022-07-18T10:38:40;27.70;83.40
50947;DHT22;36955;47.416;7.716;2022-07-18T10:41:25;27.80;83.20
50947;DHT22;36955;47.416;7.716;2022-07-18T10:43:51;27.70;83.80
50947;DHT22;36955;47.416;7.716;2022-07-18T10:46:17;27.80;89.00
50947;DHT22;36955;47.416;7.716;2022-07-18T10:51:14;28.10;84.40
50947;DHT22;36955;47.416;7.716;2022-07-18T10:54:06;28.20;82.80
50947;DHT22;36955;47.416;7.716;2022-07-18T10:59:15;28.40;82.60
50947;DHT22;36955;47.416;7.716;2022-07-18T11:01:51;28.50;87.00
50947;DHT22;36955;47.416;7.716;2022-07-18T11:04:29;28.70;85.10
50947;DHT22;36955;47.416;7.716;2022-07-18T11:07:03;28.70;80.30
50947;DHT22;36955;47.416;7.716;2022-07-18T11:09:39;28.70;81.30
50947;DHT22;36955;47.416;7.716;2022-07-18T11:22:59;28.80;79.40
50947;DHT22;36955;47.416;7.716;2022-07-18T11:25:29;28.90;82.30
50947;DHT22;36955;47.416;7.716;2022-07-18T11:27:55;29.00;84.60
50947;DHT22;36955;47.416;7.716;2022-07-18T11:30:23;29.00;78.20
50947;DHT22;36955;47.416;7.716;2022-07-18T11:32:50;29.10;82.20
50947;DHT22;36955;47.416;7.716;2022-07-18T11:35:26;29.10;80.20
50947;DHT22;36955;47.416;7.716;2022-07-18T11:37:52;29.10;79.70
50947;DHT22;36955;47.416;7.716;2022-07-18T11:40:19;29.00;80.80
50947;DHT22;36955;47.416;7.716;2022-07-18T11:42:45;29.10;85.00
50947;DHT22;36955;47.416;7.716;2022-07-18T11:45:13;29.10;77.60
50947;DHT22;36955;47.416;7.716;2022-07-18T11:47:45;29.10;78.40
50947;DHT22;36955;47.416;7.716;2022-07-18T11:50:12;29.10;81.40
50947;DHT22;36955;47.416;7.716;2022-07-18T11:52:38;29.20;83.00
50947;DHT22;36955;47.416;7.716;2022-07-18T11:55:05;29.30;80.00
50947;DHT22;36955;47.416;7.716;2022-07-18T11:57:32;29.40;76.40
50947;DHT22;36955;47.416;7.716;2022-07-18T11:59:59;29.30;79.50
50947;DHT22;36955;47.416;7.716;2022-07-18T12:03:07;29.40;84.80
50947;DHT22;36955;47.416;7.716;2022-07-18T12:05:39;29.40;80.60
50947;DHT22;36955;47.416;7.716;2022-07-18T12:11:16;29.40;81.80
50947;DHT22;36955;47.416;7.716;2022-07-18T12:16:47;29.70;81.20
50947;DHT22;36955;47.416;7.716;2022-07-18T12:19:21;29.80;79.50
50947;DHT22;36955;47.416;7.716;2022-07-18T12:22:08;29.80;77.90
50947;DHT22;36955;47.416;7.716;2022-07-18T12:24:53;29.70;74.70
50947;DHT22;36955;47.416;7.716;2022-07-18T12:30:17;29.70;77.70
50947;DHT22;36955;47.416;7.716;2022-07-18T12:32:57;29.60;76.80
50947;DHT22;36955;47.416;7.716;2022-07-18T12:35:34;29.70;76.60
50947;DHT22;36955;47.416;7.716;2022-07-18T12:38:04;29.80;77.20
50947;DHT22;36955;47.416;7.716;2022-07-18T12:40:57;29.90;79.30
50947;DHT22;36955;47.416;7.716;2022-07-18T12:43:25;30.10;76.90
50947;DHT22;36955;47.416;7.716;2022-07-18T12:45:52;30.10;76.20
50947;DHT22;36955;47.416;7.716;2022-07-18T12:48:18;30.00;75.00
50947;DHT22;36955;47.416;7.716;2022-07-18T12:50:45;30.00;76.00
50947;DHT22;36955;47.416;7.716;2022-07-18T12:53:12;30.00;76.00
50947;DHT22;36955;47.416;7.716;2022-07-18T12:55:38;30.10;77.70
50947;DHT22;36955;47.416;7.716;2022-07-18T12:58:05;30.40;74.30
50947;DHT22;36955;47.416;7.716;2022-07-18T13:00:31;30.60;74.10
50947;DHT22;36955;47.416;7.716;2022-07-18T13:02:59;30.70;73.70
50947;DHT22;36955;47.416;7.716;2022-07-18T13:05:27;30.80;73.60
50947;DHT22;36955;47.416;7.716;2022-07-18T13:07:53;30.80;73.90
50947;DHT22;36955;47.416;7.716;2022-07-18T13:10:19;30.90;74.40
50947;DHT22;36955;47.416;7.716;2022-07-18T13:12:45;31.00;73.50
50947;DHT22;36955;47.416;7.716;2022-07-18T13:15:12;31.10;72.60
50947;DHT22;36955;47.416;7.716;2022-07-18T13:17:38;31.30;74.10
50947;DHT22;36955;47.416;7.716;2022-07-18T13:20:04;31.40;68.70
50947;DHT22;36955;47.416;7.716;2022-07-18T13:22:31;31.60;70.60
50947;DHT22;36955;47.416;7.716;2022-07-18T13:24:57;31.70;69.00
50947;DHT22;36955;47.416;7.716;2022-07-18T13:27:23;31.90;68.50
50947;DHT22;36955;47.416;7.716;2022-07-18T13:29:49;32.00;68.40
50947;DHT22;36955;47.416;7.716;2022-07-18T13:32:15;32.00;67.00
50947;DHT22;36955;47.416;7.716;2022-07-18T13:34:41;32.10;69.60
50947;DHT22;36955;47.416;7.716;2022-07-18T13:37:07;32.20;67.40
50947;DHT22;36955;47.416;7.716;2022-07-18T13:39:33;32.20;68.40
50947;DHT22;36955;47.416;7.716;2022-07-18T13:41:59;32.00;65.00
50947;DHT22;36955;47.416;7.716;2022-07-18T13:44:25;31.90;68.80
50947;DHT22;36955;47.416;7.716;2022-07-18T13:46:51;32.10;66.70
50947;DHT22;36955;47.416;7.716;2022-07-18T13:49:17;32.10;66.50
50947;DHT22;36955;47.416;7.716;2022-07-18T13:51:43;32.20;66.90
50947;DHT22;36955;47.416;7.716;2022-07-18T13:54:09;32.40;71.60
50947;DHT22;36955;47.416;7.716;2022-07-18T13:56:35;32.60;66.90
50947;DHT22;36955;47.416;7.716;2022-07-18T13:59:01;32.90;65.00
50947;DHT22;36955;47.416;7.716;2022-07-18T14:01:27;32.70;64.10
50947;DHT22;36955;47.416;7.716;2022-07-18T14:03:53;32.80;63.80
50947;DHT22;36955;47.416;7.716;2022-07-18T14:06:19;32.80;63.80
50947;DHT22;36955;47.416;7.716;2022-07-18T14:08:45;32.80;65.40
50947;DHT22;36955;47.416;7.716;2022-07-18T14:11:11;32.80;62.20
50947;DHT22;36955;47.416;7.716;2022-07-18T14:13:37;32.90;65.40
50947;DHT22;36955;47.416;7.716;2022-07-18T14:16:04;32.80;62.70
50947;DHT22;36955;47.416;7.716;2022-07-18T14:18:30;32.80;63.00
50947;DHT22;36955;47.416;7.716;2022-07-18T14:20:56;32.80;63.60
50947;DHT22;36955;47.416;7.716;2022-07-18T14:23:22;32.80;61.00
50947;DHT22;36955;47.416;7.716;2022-07-18T14:25:48;32.90;65.50
50947;DHT22;36955;47.416;7.716;2022-07-18T14:28:14;33.10;66.30
50947;DHT22;36955;47.416;7.716;2022-07-18T14:30:40;33.40;64.70
50947;DHT22;36955;47.416;7.716;2022-07-18T14:33:06;33.70;61.20
50947;DHT22;36955;47.416;7.716;2022-07-18T14:35:32;33.50;60.90
50947;DHT22;36955;47.416;7.716;2022-07-18T14:37:58;33.30;64.50
50947;DHT22;36955;47.416;7.716;2022-07-18T14:40:24;33.30;64.60
50947;DHT22;36955;47.416;7.716;2022-07-18T14:42:50;33.50;62.50
50947;DHT22;36955;47.416;7.716;2022-07-18T14:45:17;33.70;60.00
50947;DHT22;36955;47.416;7.716;2022-07-18T14:47:43;34.00;61.50
50947;DHT22;36955;47.416;7.716;2022-07-18T14:50:09;34.00;61.80
50947;DHT22;36955;47.416;7.716;2022-07-18T14:52:36;33.70;62.50
50947;DHT22;36955;47.416;7.716;2022-07-18T14:55:04;33.70;62.80
50947;DHT22;36955;47.416;7.716;2022-07-18T14:57:30;33.70;59.00
50947;DHT22;36955;47.416;7.716;2022-07-18T14:59:56;33.70;63.00
50947;DHT22;36955;47.416;7.716;2022-07-18T15:02:22;33.80;63.10
50947;DHT22;36955;47.416;7.716;2022-07-18T15:04:49;33.80;62.20
50947;DHT22;36955;47.416;7.716;2022-07-18T15:07:15;33.90;60.10
50947;DHT22;36955;47.416;7.716;2022-07-18T15:09:41;33.90;63.60
50947;DHT22;36955;47.416;7.716;2022-07-18T15:12:07;34.00;60.80
50947;DHT22;36955;47.416;7.716;2022-07-18T15:14:33;33.90;61.10
50947;DHT22;36955;47.416;7.716;2022-07-18T15:16:59;34.00;62.80
50947;DHT22;36955;47.416;7.716;2022-07-18T15:19:25;34.00;61.40
50947;DHT22;36955;47.416;7.716;2022-07-18T15:21:51;34.10;63.80
50947;DHT22;36955;47.416;7.716;2022-07-18T15:24:18;34.10;61.60
50947;DHT22;36955;47.416;7.716;2022-07-18T15:26:44;33.90;60.30
50947;DHT22;36955;47.416;7.716;2022-07-18T15:29:10;33.70;62.40
50947;DHT22;36955;47.416;7.716;2022-07-18T15:31:36;33.80;61.80
50947;DHT22;36955;47.416;7.716;2022-07-18T15:34:02;33.80;61.30
50947;DHT22;36955;47.416;7.716;2022-07-18T15:36:28;33.80;61.30
50947;DHT22;36955;47.416;7.716;2022-07-18T15:38:54;33.90;63.40
50947;DHT22;36955;47.416;7.716;2022-07-18T15:41:20;33.90;62.80
50947;DHT22;36955;47.416;7.716;2022-07-18T15:43:46;33.90;62.80
50947;DHT22;36955;47.416;7.716;2022-07-18T15:46:13;33.80;60.10
50947;DHT22;36955;47.416;7.716;2022-07-18T15:48:39;33.70;62.00
50947;DHT22;36955;47.416;7.716;2022-07-18T15:51:05;33.70;64.70
50947;DHT22;36955;47.416;7.716;2022-07-18T15:53:31;33.80;63.30
50947;DHT22;36955;47.416;7.716;2022-07-18T15:55:57;33.80;60.00
50947;DHT22;36955;47.416;7.716;2022-07-18T15:58:23;33.80;62.70
50947;DHT22;36955;47.416;7.716;2022-07-18T16:00:49;33.60;63.40
50947;DHT22;36955;47.416;7.716;2022-07-18T16:03:15;33.50;62.10
50947;DHT22;36955;47.416;7.716;2022-07-18T16:05:41;33.50;61.10